createdAt,value
2022-11-12T00:01:50.447Z,17.85
2022-11-12T00:04:36.522Z,16.50
2022-11-12T00:07:22.050Z,17.67
2022-11-12T00:10:07.985Z,16.20
2022-11-12T00:12:53.603Z,16.15
2022-11-12T00:15:39.645Z,16.17
2022-11-12T00:18:25.804Z,16.08
2022-11-12T00:21:11.393Z,16.75
2022-11-12T00:23:56.872Z,17.33
2022-11-12T00:26:42.288Z,16.98
2022-11-12T00:29:27.741Z,14.82
2022-11-12T00:32:13.835Z,15.57
2022-11-12T00:35:02.422Z,15.27
2022-11-12T00:37:53.926Z,14.57
2022-11-12T00:40:39.427Z,14.95
2022-11-12T00:43:25.299Z,13.80
2022-11-12T00:46:11.806Z,14.35
2022-11-12T00:48:57.715Z,13.45
2022-11-12T00:51:43.757Z,14.73
2022-11-12T00:54:29.672Z,13.68
2022-11-12T00:57:15.103Z,14.07
2022-11-12T01:00:01.020Z,14.10
2022-11-12T01:02:51.111Z,14.55
2022-11-12T01:05:37.378Z,13.37
2022-11-12T01:08:23.017Z,13.43
2022-11-12T01:11:15.488Z,13.68
2022-11-12T01:14:11.063Z,13.50
2022-11-12T01:16:56.899Z,13.05
2022-11-12T01:19:42.359Z,13.95
2022-11-12T01:22:28.152Z,13.88
2022-11-12T01:25:13.727Z,14.45
2022-11-12T01:27:59.433Z,13.32
2022-11-12T01:30:44.747Z,14.68
2022-11-12T01:33:30.322Z,14.35
2022-11-12T01:36:17.607Z,15.18
2022-11-12T01:39:04.768Z,14.88
2022-11-12T01:41:50.584Z,14.88
2022-11-12T01:44:40.111Z,14.27
2022-11-12T01:47:35.248Z,14.38
2022-11-12T01:50:25.580Z,14.15
2022-11-12T01:53:13.705Z,14.07
2022-11-12T01:56:00.805Z,14.88
2022-11-12T01:58:48.764Z,13.65
2022-11-12T02:01:36.697Z,13.27
2022-11-12T02:04:23.108Z,13.63
2022-11-12T02:07:09.793Z,13.00
2022-11-12T02:09:55.320Z,13.43
2022-11-12T02:13:00.110Z,14.07
2022-11-12T02:15:45.596Z,13.30
2022-11-12T02:18:31.345Z,13.43
2022-11-12T02:21:22.260Z,14.13
2022-11-12T02:24:14.289Z,13.80
2022-11-12T02:27:00.123Z,13.23
2022-11-12T02:29:48.436Z,14.05
2022-11-12T02:32:33.814Z,13.13
2022-11-12T02:35:19.420Z,13.20
2022-11-12T02:38:06.550Z,12.85
2022-11-12T02:40:52.377Z,12.63
2022-11-12T02:43:39.826Z,13.18
2022-11-12T02:46:25.739Z,12.73
2022-11-12T02:49:11.324Z,13.45
2022-11-12T02:51:57.206Z,13.68
2022-11-12T02:54:42.790Z,13.23
2022-11-12T02:57:30.371Z,12.73
2022-11-12T03:00:16.475Z,13.32
2022-11-12T03:03:02.648Z,12.63
2022-11-12T03:05:57.253Z,13.18
2022-11-12T03:08:42.992Z,13.48
2022-11-12T03:11:28.933Z,12.77
2022-11-12T03:14:15.121Z,12.70
2022-11-12T03:17:00.738Z,12.15
2022-11-12T03:19:46.440Z,12.55
2022-11-12T03:22:31.888Z,13.35
2022-11-12T03:25:17.552Z,12.75
2022-11-12T03:28:10.016Z,12.27
2022-11-12T03:31:00.194Z,12.43
2022-11-12T03:33:46.165Z,12.70
2022-11-12T03:36:31.992Z,13.15
2022-11-12T03:39:17.287Z,13.10
2022-11-12T03:42:03.260Z,11.73
2022-11-12T03:44:48.880Z,12.93
2022-11-12T03:47:34.837Z,12.82
2022-11-12T03:50:22.341Z,12.55
2022-11-12T03:53:08.334Z,12.73
2022-11-12T03:55:53.973Z,13.15
2022-11-12T03:58:39.627Z,12.88
2022-11-12T04:01:25.460Z,12.43
2022-11-12T04:04:11.303Z,13.30
2022-11-12T04:07:15.385Z,12.30
2022-11-12T04:10:01.274Z,12.23
2022-11-12T04:13:05.025Z,12.52
2022-11-12T04:16:10.588Z,12.90
2022-11-12T04:19:17.355Z,12.07
2022-11-12T04:22:12.229Z,11.77
2022-11-12T04:25:16.579Z,12.55
2022-11-12T04:28:02.388Z,12.85
2022-11-12T04:30:48.022Z,12.25
2022-11-12T04:33:33.753Z,11.57
2022-11-12T04:36:19.252Z,13.07
2022-11-12T04:39:04.932Z,12.13
2022-11-12T04:42:25.445Z,12.98
2022-11-12T04:45:11.292Z,12.88
2022-11-12T04:47:56.535Z,13.48
2022-11-12T04:50:45.870Z,13.20
2022-11-12T04:53:31.552Z,12.77
2022-11-12T04:56:17.142Z,12.98
2022-11-12T04:59:02.636Z,13.00
2022-11-12T05:01:48.539Z,12.85
2022-11-12T05:04:34.265Z,13.60
2022-11-12T05:07:20.085Z,12.73
2022-11-12T05:10:05.806Z,14.38
2022-11-12T05:12:51.711Z,13.82
2022-11-12T05:15:37.163Z,14.88
2022-11-12T05:18:23.270Z,15.20
2022-11-12T05:21:27.400Z,14.82
2022-11-12T05:24:27.591Z,14.57
2022-11-12T05:27:20.615Z,16.10
2022-11-12T05:30:06.817Z,17.10
2022-11-12T05:32:52.397Z,16.08
2022-11-12T05:35:38.014Z,15.98
2022-11-12T05:38:23.531Z,15.55
2022-11-12T05:41:09.619Z,15.73
2022-11-12T05:43:55.237Z,15.40
2022-11-12T05:46:40.928Z,16.10
2022-11-12T05:49:26.185Z,15.73
2022-11-12T05:52:11.669Z,15.98
2022-11-12T05:54:57.240Z,16.92
2022-11-12T05:57:42.579Z,16.13
2022-11-12T06:00:27.992Z,15.25
2022-11-12T06:03:13.655Z,16.33
2022-11-12T06:05:59.603Z,16.88
2022-11-12T06:08:45.577Z,17.23
2022-11-12T06:11:31.518Z,16.30
2022-11-12T06:14:17.161Z,15.82
2022-11-12T06:17:02.764Z,15.23
2022-11-12T06:19:48.554Z,17.60
2022-11-12T06:22:34.516Z,18.05
2022-11-12T06:25:20.288Z,16.63
2022-11-12T06:28:05.777Z,16.92
2022-11-12T06:30:51.475Z,17.60
2022-11-12T06:33:37.276Z,17.65
2022-11-12T06:36:22.910Z,18.20
2022-11-12T06:39:08.304Z,18.10
2022-11-12T06:41:54.938Z,18.73
2022-11-12T06:44:40.517Z,20.20
2022-11-12T06:47:26.756Z,18.20
2022-11-12T06:50:12.453Z,18.77
2022-11-12T06:52:59.397Z,20.13
2022-11-12T06:55:44.872Z,19.65
2022-11-12T06:58:30.843Z,19.52
2022-11-12T07:01:17.441Z,20.85
2022-11-12T07:04:03.773Z,19.60
2022-11-12T07:06:49.047Z,19.77
2022-11-12T07:09:34.989Z,20.27
2022-11-12T07:12:20.734Z,22.33
2022-11-12T07:15:07.013Z,23.35
2022-11-12T07:17:52.314Z,23.17
2022-11-12T07:20:38.160Z,23.35
2022-11-12T07:23:24.128Z,25.20
2022-11-12T07:26:13.947Z,22.90
2022-11-12T07:28:59.444Z,23.92
2022-11-12T07:31:44.943Z,24.95
2022-11-12T07:34:31.828Z,23.40
2022-11-12T07:37:17.939Z,22.95
2022-11-12T07:40:04.814Z,23.98
2022-11-12T07:42:50.627Z,24.25
2022-11-12T07:45:36.438Z,24.70
2022-11-12T07:48:21.917Z,24.08
2022-11-12T07:51:14.331Z,23.50
2022-11-12T07:54:00.360Z,23.13
2022-11-12T07:56:46.057Z,24.05
2022-11-12T07:59:31.593Z,22.92
2022-11-12T08:02:17.526Z,23.90
2022-11-12T08:05:06.174Z,24.05
2022-11-12T08:07:57.114Z,23.63
2022-11-12T08:10:42.928Z,24.60
2022-11-12T08:13:28.269Z,24.95
2022-11-12T08:16:14.471Z,27.08
2022-11-12T08:19:01.245Z,25.63
2022-11-12T08:21:47.408Z,23.25
2022-11-12T08:24:33.222Z,24.30
2022-11-12T08:27:18.983Z,27.70
2022-11-12T08:30:05.606Z,24.92
2022-11-12T08:33:03.601Z,26.60
2022-11-12T08:35:49.397Z,24.25
2022-11-12T08:38:35.435Z,23.10
2022-11-12T08:41:21.191Z,26.88
2022-11-12T08:44:08.723Z,26.35
2022-11-12T08:46:54.675Z,24.38
2022-11-12T08:49:45.136Z,24.58
2022-11-12T08:52:33.297Z,24.13
2022-11-12T08:55:19.077Z,23.15
2022-11-12T08:58:06.915Z,25.80
2022-11-12T09:00:53.593Z,24.67
2022-11-12T09:03:38.925Z,24.80
2022-11-12T09:06:43.373Z,24.20
2022-11-12T09:09:29.302Z,23.95
2022-11-12T09:12:19.716Z,23.15
2022-11-12T09:15:36.532Z,23.52
2022-11-12T09:18:17.518Z,26.15
2022-11-12T09:21:11.632Z,26.13
2022-11-12T09:23:57.283Z,23.45
2022-11-12T09:26:43.487Z,25.13
2022-11-12T09:29:29.095Z,25.35
2022-11-12T09:32:15.301Z,28.60
2022-11-12T09:35:00.964Z,26.20
2022-11-12T09:37:46.761Z,27.05
2022-11-12T09:40:53.435Z,27.42
2022-11-12T09:43:51.867Z,25.90
2022-11-12T09:46:50.451Z,26.33
2022-11-12T09:49:43.264Z,26.95
2022-11-12T09:52:31.892Z,27.80
2022-11-12T09:55:49.907Z,29.30
2022-11-12T09:58:36.388Z,28.90
2022-11-12T10:02:03.449Z,27.92
2022-11-12T10:04:58.816Z,28.08
2022-11-12T10:08:03.726Z,27.92
2022-11-12T10:10:58.621Z,27.58
2022-11-12T10:13:45.371Z,27.20
2022-11-12T10:17:08.358Z,28.15
2022-11-12T10:20:16.592Z,27.60
2022-11-12T10:23:15.936Z,28.50
2022-11-12T10:26:18.223Z,27.55
2022-11-12T10:29:11.112Z,28.02
2022-11-12T10:32:05.063Z,26.80
2022-11-12T10:34:52.793Z,29.67
2022-11-12T10:37:45.542Z,29.00
2022-11-12T10:40:33.124Z,31.48
2022-11-12T10:43:18.987Z,28.63
2022-11-12T10:46:19.663Z,29.88
2022-11-12T10:49:21.590Z,30.42
2022-11-12T10:52:21.663Z,29.67
2022-11-12T10:55:18.024Z,30.42
2022-11-12T10:58:09.611Z,29.33
2022-11-12T11:01:01.836Z,29.08
2022-11-12T11:06:36.771Z,29.77
2022-11-12T11:09:22.718Z,29.50
2022-11-12T11:12:23.715Z,28.42
2022-11-12T11:15:21.849Z,31.67
2022-11-12T11:18:12.111Z,29.20
2022-11-12T11:21:06.283Z,31.05
2022-11-12T11:24:38.649Z,29.08
2022-11-12T11:27:42.547Z,26.90
2022-11-12T11:30:28.497Z,26.60
2022-11-12T11:33:32.653Z,26.52
2022-11-12T11:36:28.181Z,27.25
2022-11-12T11:39:43.326Z,27.23
2022-11-12T11:42:32.046Z,28.08
2022-11-12T11:45:49.730Z,28.02
2022-11-12T11:48:57.177Z,27.67
2022-11-12T11:52:03.722Z,27.95
2022-11-12T11:55:08.336Z,27.60
2022-11-12T11:58:10.252Z,25.45
2022-11-12T12:01:05.339Z,24.90
2022-11-12T12:04:00.261Z,25.13
2022-11-12T12:07:09.383Z,24.15
2022-11-12T12:09:54.784Z,22.25
2022-11-12T12:12:55.668Z,22.77
2022-11-12T12:16:24.968Z,22.05
2022-11-12T12:19:29.308Z,20.88
2022-11-12T12:22:24.133Z,21.25
2022-11-12T12:25:16.749Z,20.10
2022-11-12T12:28:08.060Z,21.60
2022-11-12T12:30:58.772Z,20.13
2022-11-12T12:33:52.895Z,20.55
2022-11-12T12:36:41.196Z,20.13
2022-11-12T12:39:35.968Z,20.05
2022-11-12T12:42:27.254Z,19.92
2022-11-12T12:45:21.405Z,18.25
2022-11-12T12:48:16.617Z,18.42
2022-11-12T12:51:02.121Z,18.02
2022-11-12T12:53:48.283Z,16.92
2022-11-12T12:56:33.695Z,16.05
2022-11-12T12:59:22.268Z,14.80
2022-11-12T13:02:20.380Z,15.43
2022-11-12T13:05:06.971Z,15.43
2022-11-12T13:07:53.418Z,14.75
2022-11-12T13:10:38.967Z,16.13
2022-11-12T13:13:32.197Z,15.40
2022-11-12T13:16:50.515Z,14.40
2022-11-12T13:19:46.209Z,14.25
2022-11-12T13:22:37.896Z,14.52
2022-11-12T13:25:31.717Z,15.23
2022-11-12T13:28:18.094Z,14.13
2022-11-12T13:31:04.567Z,14.20
2022-11-12T13:33:50.323Z,13.88
2022-11-12T13:36:35.800Z,13.27
2022-11-12T13:39:23.127Z,14.05
2022-11-12T13:42:37.101Z,13.25
2022-11-12T13:45:25.374Z,13.63
2022-11-12T13:48:17.800Z,12.60
2022-11-12T13:51:11.743Z,13.98
2022-11-12T13:53:57.275Z,15.18
2022-11-12T13:57:15.854Z,14.45
2022-11-12T14:00:32.019Z,14.00
2022-11-12T14:03:19.306Z,14.40
2022-11-12T14:06:19.125Z,15.55
2022-11-12T14:09:52.407Z,13.70
2022-11-12T14:12:58.194Z,15.30
2022-11-12T14:15:56.247Z,15.32
2022-11-12T14:19:09.342Z,15.45
2022-11-12T14:22:18.784Z,14.85
2022-11-12T14:25:16.648Z,16.20
2022-11-12T14:28:01.802Z,15.90
2022-11-12T14:30:47.931Z,16.95
2022-11-12T14:33:33.527Z,17.20
2022-11-12T14:36:20.859Z,19.45
2022-11-12T14:39:07.457Z,20.13
2022-11-12T14:41:55.908Z,19.80
2022-11-12T14:44:41.855Z,22.50
2022-11-12T14:47:27.898Z,21.33
2022-11-12T14:50:40.236Z,22.35
2022-11-12T14:53:37.820Z,22.40
2022-11-12T14:56:35.742Z,22.92
2022-11-12T14:59:22.580Z,22.13
2022-11-12T15:02:50.248Z,22.23
2022-11-12T15:05:27.478Z,24.58
2022-11-12T15:08:13.234Z,22.10
2022-11-12T15:11:46.151Z,19.90
2022-11-12T15:17:32.545Z,19.50
2022-11-12T15:20:19.549Z,21.08
2022-11-12T15:23:06.034Z,19.85
2022-11-12T15:26:01.851Z,20.17
2022-11-12T15:29:02.109Z,19.67
2022-11-12T15:31:59.769Z,20.13
2022-11-12T15:34:48.251Z,19.92
2022-11-12T15:37:42.516Z,18.83
2022-11-12T15:40:28.902Z,19.00
2022-11-12T15:43:23.495Z,18.33
2022-11-12T15:46:15.563Z,20.92
2022-11-12T15:49:00.912Z,19.25
2022-11-12T15:51:46.871Z,19.75
2022-11-12T15:54:34.615Z,20.42
2022-11-12T15:57:28.511Z,20.55
2022-11-12T16:00:19.394Z,20.13
2022-11-12T16:03:16.940Z,19.70
2022-11-12T16:06:08.312Z,22.40
2022-11-12T16:08:54.985Z,20.27
2022-11-12T16:11:40.375Z,19.50
2022-11-12T16:14:27.323Z,20.40
2022-11-12T16:17:18.201Z,19.60
2022-11-12T16:20:13.628Z,19.27
2022-11-12T16:22:59.115Z,19.58
2022-11-12T16:25:45.465Z,20.17
2022-11-12T16:28:30.969Z,19.58
2022-11-12T16:31:16.865Z,19.45
2022-11-12T16:34:02.299Z,18.60
2022-11-12T16:36:48.331Z,18.33
2022-11-12T16:39:34.060Z,20.08
2022-11-12T16:42:19.724Z,18.58
2022-11-12T16:45:05.681Z,20.40
2022-11-12T16:47:54.015Z,17.98
2022-11-12T16:50:39.902Z,19.38
2022-11-12T16:53:25.926Z,19.23
2022-11-12T16:56:17.718Z,20.23
2022-11-12T16:59:03.355Z,19.08
2022-11-12T17:01:49.209Z,19.80
2022-11-12T17:04:35.421Z,19.48
2022-11-12T17:07:21.415Z,18.35
2022-11-12T17:10:07.689Z,18.13
2022-11-12T17:12:53.382Z,18.75
2022-11-12T17:15:42.701Z,19.70
2022-11-12T17:18:32.900Z,18.33
2022-11-12T17:21:22.309Z,18.10
2022-11-12T17:24:10.407Z,18.35
2022-11-12T17:26:56.086Z,19.33
2022-11-12T17:29:41.292Z,17.38
2022-11-12T17:32:27.037Z,18.00
2022-11-12T17:35:12.174Z,18.20
2022-11-12T17:38:00.416Z,18.17
2022-11-12T17:40:46.171Z,18.05
2022-11-12T17:43:32.634Z,17.58
2022-11-12T17:46:17.940Z,18.33
2022-11-12T17:49:04.081Z,18.25
2022-11-12T17:51:50.232Z,19.17
2022-11-12T17:54:36.670Z,19.40
2022-11-12T17:57:24.739Z,19.10
2022-11-12T18:00:11.062Z,19.02
2022-11-12T18:02:57.599Z,18.08
2022-11-12T18:05:44.026Z,19.48
2022-11-12T18:08:29.530Z,19.40
2022-11-12T18:11:16.241Z,18.67
2022-11-12T18:14:07.400Z,19.77
2022-11-12T18:16:53.667Z,19.15
2022-11-12T18:19:38.938Z,19.77
2022-11-12T18:22:25.584Z,19.10
2022-11-12T18:25:11.921Z,19.10
2022-11-12T18:27:57.679Z,18.55
2022-11-12T18:30:43.129Z,19.17
2022-11-12T18:33:30.919Z,19.98
2022-11-12T18:36:19.523Z,18.23
2022-11-12T18:39:07.672Z,20.25
2022-11-12T18:41:55.363Z,19.95
2022-11-12T18:44:41.723Z,19.10
2022-11-12T18:47:30.825Z,19.88
2022-11-12T18:50:17.787Z,20.15
2022-11-12T18:53:03.578Z,20.05
2022-11-12T18:55:51.350Z,20.20
2022-11-12T18:58:36.825Z,21.38
2022-11-12T19:01:24.331Z,21.05
2022-11-12T19:04:12.018Z,21.33
2022-11-12T19:06:57.968Z,22.02
2022-11-12T19:09:43.858Z,22.75
2022-11-12T19:12:29.854Z,21.75
2022-11-12T19:15:21.614Z,21.52
2022-11-12T19:18:10.650Z,24.08
2022-11-12T19:21:04.569Z,26.90
2022-11-12T19:23:54.088Z,25.60
2022-11-12T19:26:40.503Z,27.90
2022-11-12T19:29:26.312Z,26.52
2022-11-12T19:32:12.968Z,28.20
2022-11-12T19:34:58.787Z,27.33
2022-11-12T19:37:44.639Z,28.80
2022-11-12T19:40:30.931Z,29.08
2022-11-12T19:43:16.616Z,29.67
2022-11-12T19:46:02.753Z,30.73
2022-11-12T19:48:48.912Z,29.30
2022-11-12T19:51:35.103Z,29.13
2022-11-12T19:54:20.511Z,29.48
2022-11-12T19:57:06.470Z,29.52
2022-11-12T19:59:51.882Z,29.02
2022-11-12T20:02:37.706Z,29.92
2022-11-12T20:05:23.178Z,30.35
2022-11-12T20:08:08.923Z,30.45
2022-11-12T20:10:54.639Z,31.20
2022-11-12T20:13:40.359Z,31.23
2022-11-12T20:16:26.033Z,31.02
2022-11-12T20:19:12.152Z,33.10
2022-11-12T20:21:57.721Z,31.33
2022-11-12T20:24:43.273Z,31.33
2022-11-12T20:27:29.060Z,30.02
2022-11-12T20:30:14.578Z,31.02
2022-11-12T20:33:00.013Z,32.13
2022-11-12T20:35:45.811Z,33.10
2022-11-12T20:38:31.517Z,31.17
2022-11-12T20:41:23.102Z,34.42
2022-11-12T20:44:08.416Z,32.13
2022-11-12T20:46:54.231Z,33.97
2022-11-12T20:49:39.469Z,35.00
2022-11-12T20:52:24.833Z,35.63
2022-11-12T20:55:10.213Z,34.63
2022-11-12T20:57:56.221Z,35.70
2022-11-12T21:00:41.615Z,35.05
2022-11-12T21:03:27.345Z,34.78
2022-11-12T21:06:22.337Z,36.60
2022-11-12T21:09:07.749Z,36.35
2022-11-12T21:11:53.623Z,36.45
2022-11-12T21:14:39.198Z,34.22
2022-11-12T21:17:24.473Z,36.95
2022-11-12T21:20:10.872Z,36.90
2022-11-12T21:22:57.493Z,36.60
2022-11-12T21:25:43.326Z,36.38
2022-11-12T21:28:29.256Z,36.65
2022-11-12T21:31:18.503Z,35.30
2022-11-12T21:34:04.744Z,35.72
2022-11-12T21:36:50.684Z,36.40
2022-11-12T21:39:36.268Z,36.72
2022-11-12T21:42:22.270Z,35.13
2022-11-12T21:45:08.793Z,35.85
2022-11-12T21:47:54.389Z,35.92
2022-11-12T21:50:39.952Z,35.97
2022-11-12T21:53:25.580Z,35.38
2022-11-12T21:56:17.398Z,36.90
2022-11-12T21:59:04.453Z,35.95
2022-11-12T22:01:49.891Z,35.95
2022-11-12T22:04:35.360Z,34.58
2022-11-12T22:07:21.405Z,34.47
2022-11-12T22:10:07.624Z,34.05
2022-11-12T22:13:24.805Z,35.38
2022-11-12T22:15:59.156Z,34.45
2022-11-12T22:18:46.885Z,34.60
2022-11-12T22:21:39.399Z,34.20
2022-11-12T22:24:25.625Z,36.58
2022-11-12T22:27:11.421Z,34.63
2022-11-12T22:29:57.214Z,34.97
2022-11-12T22:32:43.084Z,35.42
2022-11-12T22:35:28.757Z,35.20
2022-11-12T22:38:14.623Z,35.33
2022-11-12T22:41:05.837Z,35.20
2022-11-12T22:43:57.009Z,34.17
2022-11-12T22:46:42.663Z,33.33
2022-11-12T22:49:28.697Z,34.58
2022-11-12T22:52:14.106Z,34.85
2022-11-12T22:55:00.056Z,33.03
2022-11-12T22:57:45.585Z,34.30
2022-11-12T23:00:32.173Z,36.25
2022-11-12T23:03:17.713Z,34.42
2022-11-12T23:06:06.199Z,35.05
2022-11-12T23:08:53.393Z,34.53
2022-11-12T23:11:39.024Z,36.72
2022-11-12T23:14:24.603Z,34.83
2022-11-12T23:17:10.275Z,35.83
2022-11-12T23:19:55.950Z,37.50
2022-11-12T23:22:41.454Z,35.63
2022-11-12T23:25:26.935Z,36.38
2022-11-12T23:28:12.710Z,34.90
2022-11-12T23:30:58.586Z,34.30
2022-11-12T23:33:46.107Z,34.35
2022-11-12T23:36:32.576Z,35.85
2022-11-12T23:39:18.619Z,34.05
2022-11-12T23:42:04.143Z,35.17
2022-11-12T23:44:50.300Z,32.70
2022-11-12T23:47:36.042Z,31.67
2022-11-12T23:50:21.864Z,33.22
2022-11-12T23:53:07.066Z,32.20
2022-11-12T23:55:53.370Z,35.08
2022-11-12T23:58:40.052Z,33.20
